Motte Rimrock Reserve, California Weather observations

Data are for 10 minute period ending at time listed.
 Day   Time   Solar   Ave.   Ave.  Ave.  Vector  Max.   Baro.   Total    
  of    of     Rad.   Air    Rel.  Wind   Wind   Wind  Press.  Precip.   
Year   Day            Temp.  Hum.  Speed  Dir.   Gust                    
2016   (PST)  Kw/m2    F      %     mph   deg.    mph    mb.     in.     
-------------------------------------------------------------------------
 181   13:10   0.91   99.7    18   15.3   311    21.9   945.2    0.00 
 181   13:20   0.90  100.1    18   14.2   302    19.5   945.2    0.00 
 181   13:30   0.89  100.0    18   14.9   294    19.6   945.0    0.00 
 181   13:40   0.87   99.1    19   14.9   289    22.3   944.9    0.00 
 181   13:50   0.86   98.9    20   16.1   295    22.4   944.8    0.00 
 181   14:00   0.83   99.1    21   15.4   305    20.2   944.8    0.00 
 181   14:10   0.81   99.0    22   16.2   302    21.0   944.8    0.00 
 181   14:20   0.78   98.6    22   15.4   301    20.8   944.7    0.00 
 181   14:30   0.76   98.2    22   17.1   301    21.5   944.6    0.00 
 181   14:40   0.74   97.4    23   17.2   303    23.0   944.5    0.00 
 181   14:50   0.71   97.1    23   16.9   306    23.2   944.4    0.00 
 181   15:00   0.68   97.4    20   18.4   295    24.3   944.2    0.00 
 181   15:10   0.66   96.3    21   18.1   299    24.7   944.1    0.00 
 181   15:20   0.63   97.3    19   16.9   300    22.4   944.1    0.00 
 181   15:30   0.61   97.3    20   15.9   302    21.9   944.1    0.00 
 181   15:40   0.58   96.3    20   18.1   304    25.2   944.0    0.00 
 181   15:50   0.55   95.6    19   17.9   300    22.9   944.0    0.00 
 181   16:00   0.52   95.8    18   19.4   302    23.9   943.9    0.00 
 181   16:10   0.49   95.1    19   18.5   303    23.7   943.8    0.00 
 181   16:20   0.46   95.6    20   16.3   303    22.4   943.8    0.00 
 181   16:30   0.42   94.8    21   17.8   297    23.8   943.7    0.00 
 181   16:40   0.39   94.5    21   15.7   301    21.0   943.7    0.00 
 181   16:50   0.36   94.2    20   16.7   299    21.0   943.7    0.00 
 181   17:00   0.33   93.9    19   17.1   298    22.3   943.6    0.00 
 181   17:10   0.30   93.8    20   15.3   303    20.2   943.7    0.00 
 181   17:20   0.27   93.0    20   16.9   316    20.4   943.7    0.00 
 181   17:30   0.23   92.2    20   16.7   311    19.9   943.7    0.00 
 181   17:40   0.20   91.6    20   16.3   314    20.7   943.7    0.00 
 181   17:50   0.17   91.5    21   14.4   310    17.7   943.7    0.00 
 181   18:00   0.14   91.0    22   14.0   317    18.0   943.8    0.00 
 181   18:10   0.11   90.0    22   15.7   316    20.3   943.8    0.00 
 181   18:20   0.09   89.0    24   15.0   313    17.9   943.8    0.00 
 181   18:30   0.07   88.1    26   13.6   319    16.4   943.9    0.00 
 181   18:40   0.05   87.2    27    8.4   325    15.1   944.2    0.00 
 181   18:50   0.03   86.6    27    4.3   334     7.8   944.3    0.00 
 181   19:00   0.02   84.8    29    8.1   325    10.4   944.4    0.00 
 181   19:10   0.01   83.9    30    5.5   323     9.6   944.5    0.00 
 181   19:20   0.01   83.2    30    6.7   330     9.2   944.5    0.00 
 181   19:30   0.00   82.4    31    7.1   317     8.8   944.6    0.00 
 181   19:40   0.00   81.6    33    6.8   313    10.2   944.8    0.00 
 181   19:50   0.00   80.9    34    9.0   314    11.1   944.8    0.00 
 181   20:00   0.00   80.4    37    9.6   308    12.4   944.9    0.00 
 181   20:10   0.00   79.9    39    7.5   309    11.0   945.1    0.00 
 181   20:20   0.00   79.5    38    6.8   297     9.3   945.1    0.00 
 181   20:30   0.00   78.9    40    4.8   290     6.6   945.2    0.00 
 181   20:40   0.00   78.4    42    5.2   292     7.2   945.4    0.00 
 181   20:50   0.00   78.6    41    7.0   301     8.6   945.5    0.00 
 181   21:00   0.00   78.4    41    6.6   302     8.1   945.6    0.00 
 181   21:10   0.00   77.6    44    6.8   298     8.6   945.6    0.00 
 181   21:20   0.00   77.4    45    7.3   298     8.4   945.6    0.00 
 181   21:30   0.00   77.4    44    6.5   302     8.7   945.6    0.00 
 181   21:40   0.00   77.2    44    5.8   301     7.6   945.6    0.00 
 181   21:50   0.00   76.8    46    2.5   317     5.6   945.6    0.00 
 181   22:00   0.00   76.8    47    3.4   340     6.4   945.7    0.00 
 181   22:10   0.00   76.7    48    2.1   324     5.5   945.6    0.00 
 181   22:20   0.00   76.4    50    1.4   345     2.3   945.5    0.00 
 181   22:30   0.00   76.6    49    2.3    46     3.2   945.5    0.00 
 181   22:40   0.00   76.6    45    3.8    23     5.7   945.5    0.00 
 181   22:50   0.00   76.4    46    4.6    30     5.8   945.6    0.00 
 181   23:00   0.00   75.9    45    4.0    20     4.9   945.5    0.00 
 181   23:10   0.00   75.5    47    4.2     2     4.9   945.4    0.00 
 181   23:20   0.00   75.5    49    3.7    12     4.5   945.4    0.00 
 181   23:30   0.00   75.3    48    3.6     8     4.3   945.3    0.00 
 181   23:40   0.00   75.0    51    3.3    11     4.1   945.2    0.00 
 181   23:50   0.00   74.8    52    3.4    18     5.0   945.2    0.00 
 182    0:00   0.00   74.4    53    2.6    16     4.1   945.2    0.00 
 182    0:10   0.00   73.1    55    4.4   325     5.5   945.2    0.00 
 182    0:20   0.00   72.3    56    5.4   322     6.5   945.1    0.00 
 182    0:30   0.00   72.0    57    5.0   316     6.8   945.0    0.00 
 182    0:40   0.00   72.0    58    3.4   312     4.7   945.0    0.00 
 182    0:50   0.00   71.9    58    4.0   308     5.3   944.9    0.00 
 182    1:00   0.00   72.0    58    3.4   308     4.9   944.8    0.00 
 182    1:10   0.00   71.8    58    2.8   336     4.4   944.8    0.00 
 182    1:20   0.00   71.7    58    3.1   354     4.5   944.8    0.00 
 182    1:30   0.00   71.5    59    3.3   354     5.0   944.8    0.00 
 182    1:40   0.00   71.2    58    0.6    82     2.2   944.7    0.00 
 182    1:50   0.00   70.4    61    1.9   297     3.5   944.7    0.00 
 182    2:00   0.00   69.7    64    2.2   307     4.0   944.6    0.00 
 182    2:10   0.00   68.9    66    4.6   309     7.5   944.5    0.00 
 182    2:20   0.00   68.7    67    4.8   319     6.9   944.6    0.00 
 182    2:30   0.00   68.5    68    3.9   347     5.4   944.5    0.00 
 182    2:40   0.00   69.2    66    1.5    43     3.4   944.5    0.00 
 182    2:50   0.00   69.2    66    0.6     0     1.5   944.5    0.00 
 182    3:00   0.00   68.6    67    2.7   342     3.7   944.5    0.00 
 182    3:10   0.00   68.1    68    2.8   328     3.9   944.5    0.00 
 182    3:20   0.00   67.6    69    3.4   325     4.9   944.5    0.00 
 182    3:30   0.00   67.5    70    4.0   333     4.8   944.5    0.00 
 182    3:40   0.00   67.6    70    5.1   333     6.6   944.4    0.00 
 182    3:50   0.00   67.0    72    5.6   329     6.5   944.4    0.00 
 182    4:00   0.00   67.3    71    5.2   331     6.0   944.4    0.00 
 182    4:10   0.00   66.9    72    4.3   332     5.7   944.5    0.00 
 182    4:20   0.00   66.5    72    5.2   333     8.0   944.6    0.00 
 182    4:30   0.00   66.0    73    6.5   318     8.8   944.6    0.00 
 182    4:40   0.00   66.0    73    6.9   320     9.3   944.7    0.00 
 182    4:50   0.00   66.2    73    5.6   311     8.0   944.8    0.00 
 182    5:00   0.01   66.3    73    5.7   317     7.7   944.8    0.00 
 182    5:10   0.02   66.8    71    5.7   316     8.0   944.9    0.00 
 182    5:20   0.04   67.4    70    4.2   314     5.7   945.0    0.00 
 182    5:30   0.07   68.4    68    3.6   306     4.7   945.1    0.00 
 182    5:40   0.08   70.2    65    2.5   305     3.5   945.2    0.00 
 182    5:50   0.11   71.8    62    1.2   291     2.4   945.2    0.00 
 182    6:00   0.14   72.7    58    2.0   241     3.1   945.2    0.00 
 182    6:10   0.18   73.3    55    1.3   219     2.1   945.2    0.00 
 182    6:20   0.21   74.3    54    1.0   233     2.0   945.3    0.00 
 182    6:30   0.25   75.5    52    1.4   254     2.5   945.3    0.00 
 182    6:40   0.28   77.5    49    0.7   111     3.1   945.4    0.00 
 182    6:50   0.32   76.6    52    2.9    94     4.2   945.5    0.00 
 182    7:00   0.35   77.0    51    1.2    39     3.1   945.4    0.00 
 182    7:10   0.39   79.0    48    0.8     6     2.9   945.3    0.00 
 182    7:20   0.42   80.7    45    1.4    67     3.4   945.4    0.00 
 182    7:30   0.45   81.2    44    1.8    77     3.9   945.4    0.00 
 182    7:40   0.48   80.8    45    2.5    64     4.5   945.4    0.00 
 182    7:50   0.52   81.2    44    2.6    47     4.7   945.4    0.00 
 182    8:00   0.54   82.2    44    2.3    63     5.8   945.4    0.00 
 182    8:10   0.57   82.2    46    5.0    65     8.9   945.3    0.00 
 182    8:20   0.61   82.5    46    4.6    82     8.5   945.3    0.00 
 182    8:30   0.63   83.0    45    6.7   116    10.2   945.3    0.00 
 182    8:40   0.66   83.9    44    5.5   115     8.6   945.3    0.00 
 182    8:50   0.69   84.6    42    4.6   113     7.0   945.3    0.00 
 182    9:00   0.72   86.5    39    3.9   115     7.3   945.2    0.00 
 182    9:10   0.74   86.9    37    3.0   179     7.9   945.1    0.00 
 182    9:20   0.77   87.9    34    2.6   191     5.8   945.0    0.00 
 182    9:30   0.79   89.4    31    3.6   103     8.2   945.0    0.00 
 182    9:40   0.81   89.8    28    6.8    77    10.5   945.0    0.00 
 182    9:50   0.83   90.8    27    5.9    94    10.2   945.0    0.00 
 182   10:00   0.85   91.9    26    4.3    94     9.8   945.0    0.00 
 182   10:10   0.87   91.9    26    3.1    78     7.4   945.1    0.00 
 182   10:20   0.89   93.1    24    5.3   133     8.4   945.2    0.00 
 182   10:30   0.90   94.0    23    4.7   132     9.5   945.2    0.00 
 182   10:40   0.92   94.8    21    4.6   189     8.8   945.2    0.00 
 182   10:50   0.93   95.1    21    4.2   173     8.6   945.2    0.00 
 182   11:00   0.94   94.9    20    2.9   189     8.7   945.1    0.00 
 182   11:10   0.94   95.9    19    5.3   232     9.4   945.1    0.00 
 182   11:20   0.95   96.2    18    4.6   266     9.3   944.9    0.00 
 182   11:30   0.95   96.6    17    5.4   203    10.2   944.9    0.00 
 182   11:40   0.96   97.3    16    4.8   217     8.0   944.9    0.00 
 182   11:50   0.96   98.0    17    5.7   136     9.7   944.7    0.00 
 182   12:00   0.95   97.8    17    4.0   121     9.5   944.7    0.00 
 182   12:10   0.94   98.7    20    4.3   333    11.0   944.6    0.00 
 182   12:20   0.93   97.7    23    9.2   305    14.8   944.5    0.00 
 182   12:30   0.93   96.9    24   11.7   300    15.6   944.3    0.00 
 182   12:40   0.93   97.4    23   10.7   308    15.9   944.2    0.00 
 182   12:50   0.92   97.7    23   11.6   298    16.4   944.2    0.00 
 182   13:00   0.89   97.7    24   11.8   304    17.6   944.1    0.00 

Return to Motte Rimrock Reserve graphs page.


Western Regional Climate Center,wrcc@dri.edu